createdAt,value
2019-04-27T08:57:49.507Z,15.05
2019-04-27T09:00:19.277Z,11.75
2019-04-27T09:02:49.972Z,11.15
2019-04-27T09:05:21.117Z,14.10
2019-04-27T09:08:08.755Z,16.12
2019-04-27T09:10:55.207Z,13.83
2019-04-27T09:13:37.264Z,14.68
2019-04-27T09:16:15.995Z,11.75
2019-04-27T09:18:44.306Z,15.80
2019-04-27T09:21:12.611Z,12.03
2019-04-27T09:23:40.933Z,13.43
2019-04-27T09:26:11.042Z,15.72
2019-04-27T09:28:39.280Z,11.63
2019-04-27T09:31:09.216Z,14.63
2019-04-27T09:33:37.839Z,16.07
2019-04-27T09:36:06.228Z,7.93
2019-04-27T09:38:35.797Z,11.88
2019-04-27T09:41:04.325Z,11.75
2019-04-27T09:43:32.658Z,10.90
2019-04-27T09:46:02.614Z,9.70
2019-04-27T09:48:30.920Z,11.18
2019-04-27T09:50:59.252Z,9.20
2019-04-27T09:53:27.596Z,9.60
2019-04-27T09:55:55.892Z,13.28
2019-04-27T09:58:25.762Z,12.30
2019-04-27T10:00:54.213Z,13.05
2019-04-27T10:03:22.521Z,12.50
2019-04-27T10:05:50.826Z,16.20
2019-04-27T10:08:19.451Z,14.85
2019-04-27T10:10:47.998Z,16.45
2019-04-27T10:13:16.561Z,11.23
2019-04-27T10:15:45.925Z,12.15
2019-04-27T10:18:16.193Z,13.70
2019-04-27T10:20:56.967Z,11.10
2019-04-27T10:23:14.469Z,12.88
2019-04-27T10:25:42.836Z,13.40
2019-04-27T10:28:11.439Z,14.38
2019-04-27T10:30:39.809Z,15.30
2019-04-27T10:33:08.314Z,13.00
2019-04-27T10:35:37.019Z,12.53
2019-04-27T10:38:05.446Z,8.60
2019-04-27T10:40:33.739Z,11.15
2019-04-27T10:43:02.024Z,8.25
2019-04-27T10:45:30.359Z,8.05
2019-04-27T10:47:58.991Z,9.10
2019-04-27T10:50:27.383Z,6.85
2019-04-27T10:52:58.920Z,5.20
2019-04-27T10:55:26.203Z,7.17
2019-04-27T10:57:54.532Z,3.58
2019-04-27T11:00:30.397Z,4.15
2019-04-27T11:02:58.697Z,2.98
2019-04-27T11:05:35.862Z,5.40
2019-04-27T11:08:04.322Z,5.60
2019-04-27T11:10:32.762Z,6.70
2019-04-27T11:13:01.094Z,9.58
2019-04-27T11:15:29.416Z,6.83
2019-04-27T11:17:57.705Z,12.82
2019-04-27T11:20:27.731Z,9.80
2019-04-27T11:23:06.681Z,9.25
2019-04-27T11:25:26.440Z,10.95
2019-04-27T11:27:55.922Z,12.10
2019-04-27T11:30:24.886Z,9.20
2019-04-27T11:32:56.652Z,12.18
2019-04-27T11:35:25.757Z,14.07
2019-04-27T11:37:56.230Z,12.33
2019-04-27T11:40:24.731Z,14.53
2019-04-27T11:42:53.051Z,11.05
2019-04-27T11:45:21.389Z,13.63
2019-04-27T11:47:49.678Z,11.48
2019-04-27T11:50:18.900Z,15.15
2019-04-27T11:52:47.222Z,13.50
2019-04-27T11:55:16.135Z,10.23
2019-04-27T11:57:44.623Z,12.63
2019-04-27T12:00:16.511Z,14.13
2019-04-27T12:02:45.705Z,14.65
2019-04-27T12:05:15.979Z,11.70
2019-04-27T12:07:47.384Z,10.88
2019-04-27T12:10:15.975Z,11.93
2019-04-27T12:12:46.197Z,11.20
2019-04-27T12:15:15.955Z,13.55
2019-04-27T12:17:46.094Z,15.70
2019-04-27T12:20:16.042Z,12.00
2019-04-27T12:22:44.724Z,13.68
2019-04-27T12:25:13.008Z,11.95
2019-04-27T12:27:51.752Z,11.97
2019-04-27T12:30:26.068Z,16.07
2019-04-27T12:32:55.804Z,15.60
2019-04-27T12:35:25.733Z,15.20
2019-04-27T12:37:55.815Z,15.72
2019-04-27T12:40:24.405Z,14.15
2019-04-27T12:42:52.729Z,16.12
2019-04-27T12:45:21.100Z,13.30
2019-04-27T12:47:49.413Z,12.65
2019-04-27T12:50:18.181Z,13.60
2019-04-27T12:52:48.163Z,10.53
2019-04-27T12:55:18.098Z,10.63
2019-04-27T12:57:53.869Z,11.35
2019-04-27T13:00:26.738Z,15.13
2019-04-27T13:02:55.624Z,12.63
2019-04-27T13:05:25.840Z,16.85
2019-04-27T13:07:54.269Z,19.27
2019-04-27T13:10:23.037Z,16.17
2019-04-27T13:12:51.435Z,17.67
2019-04-27T13:15:20.087Z,17.73
2019-04-27T13:17:48.396Z,21.75
2019-04-27T13:20:16.722Z,15.43
2019-04-27T13:22:45.917Z,15.15
2019-04-27T13:25:14.314Z,13.45
2019-04-27T13:27:42.638Z,9.53
2019-04-27T13:30:10.998Z,6.83
2019-04-27T13:32:39.326Z,11.22
2019-04-27T13:35:07.646Z,9.35
2019-04-27T13:37:37.689Z,7.90
2019-04-27T13:40:09.503Z,8.73
2019-04-27T13:42:53.760Z,6.92
2019-04-27T13:45:40.005Z,8.80
2019-04-27T13:48:18.882Z,9.15
2019-04-27T13:50:57.636Z,10.63
2019-04-27T13:53:26.402Z,15.40
2019-04-27T13:55:56.626Z,14.00
2019-04-27T13:58:24.803Z,15.58
2019-04-27T14:00:53.181Z,12.90
2019-04-27T14:03:21.480Z,14.65
2019-04-27T14:05:49.799Z,14.43
2019-04-27T14:08:18.435Z,13.45
2019-04-27T14:10:46.777Z,15.10
2019-04-27T14:13:17.561Z,16.52
2019-04-27T14:15:45.433Z,13.48
2019-04-27T14:18:13.739Z,13.43
2019-04-27T14:20:42.039Z,11.37
2019-04-27T14:23:14.761Z,13.15
2019-04-27T14:25:43.104Z,12.75
2019-04-27T14:28:11.447Z,13.98
2019-04-27T14:30:40.044Z,12.98
2019-04-27T14:33:08.603Z,15.00
2019-04-27T14:35:36.946Z,17.92
2019-04-27T14:38:05.253Z,14.28
2019-04-27T14:40:33.574Z,15.28
2019-04-27T14:43:01.886Z,15.77
2019-04-27T14:45:30.218Z,13.80
2019-04-27T14:47:58.522Z,18.30
2019-04-27T14:50:27.159Z,16.82
2019-04-27T14:52:55.534Z,17.92
2019-04-27T14:55:23.847Z,20.70
2019-04-27T14:57:52.142Z,18.63
2019-04-27T15:00:21.666Z,13.65
2019-04-27T15:02:49.952Z,14.60
2019-04-27T15:05:18.264Z,12.35
2019-04-27T15:07:46.621Z,13.85
2019-04-27T15:10:16.182Z,12.25
2019-04-27T15:12:44.772Z,16.67
2019-04-27T15:15:13.134Z,17.90
2019-04-27T15:17:41.451Z,19.17
2019-04-27T15:20:13.828Z,16.73
2019-04-27T15:22:42.320Z,15.77
2019-04-27T15:25:13.680Z,13.25
2019-04-27T15:27:42.490Z,14.65
2019-04-27T15:30:14.393Z,17.17
2019-04-27T15:32:53.319Z,18.30
2019-04-27T15:35:23.292Z,16.93
2019-04-27T15:37:53.229Z,15.95
2019-04-27T15:40:43.750Z,16.50
2019-04-27T15:43:11.256Z,20.72
2019-04-27T15:45:39.549Z,16.45
2019-04-27T15:48:08.471Z,17.40
2019-04-27T15:50:38.640Z,18.43
2019-04-27T15:53:10.073Z,18.92
2019-04-27T15:55:39.445Z,17.25
2019-04-27T15:58:07.980Z,14.98
2019-04-27T16:00:38.286Z,17.98
2019-04-27T16:03:08.264Z,14.73
2019-04-27T16:05:37.538Z,20.00
2019-04-27T16:08:12.517Z,14.30
2019-04-27T16:10:37.406Z,18.03
2019-04-27T16:13:07.521Z,19.90
2019-04-27T16:15:35.971Z,17.07
2019-04-27T16:18:04.365Z,18.75
2019-04-27T16:20:34.028Z,20.37
2019-04-27T16:23:04.192Z,17.02
2019-04-27T16:25:45.268Z,20.23
2019-04-27T16:28:04.575Z,15.72
2019-04-27T16:30:32.979Z,16.95
2019-04-27T16:33:03.658Z,16.52
2019-04-27T16:35:32.019Z,17.20
2019-04-27T16:38:04.693Z,16.82
2019-04-27T16:40:33.023Z,13.10
2019-04-27T16:43:01.335Z,14.78
2019-04-27T16:45:29.634Z,14.28
2019-04-27T16:47:59.849Z,14.68
2019-04-27T16:50:28.885Z,17.60
2019-04-27T16:53:00.917Z,13.75
2019-04-27T16:55:33.976Z,13.22
2019-04-27T16:57:57.965Z,15.55
2019-04-27T17:00:29.561Z,14.28
2019-04-27T17:02:59.846Z,14.20
2019-04-27T17:05:30.863Z,16.82
2019-04-27T17:07:57.324Z,13.95
2019-04-27T17:10:26.647Z,16.42
2019-04-27T17:12:55.711Z,18.23
2019-04-27T17:15:46.083Z,17.10
2019-04-27T17:18:20.074Z,18.25
2019-04-27T17:20:59.182Z,15.83
2019-04-27T17:23:31.168Z,15.68
2019-04-27T17:26:06.039Z,13.03
2019-04-27T17:28:42.076Z,16.90
2019-04-27T17:31:12.896Z,15.10
2019-04-27T17:33:48.902Z,15.65
2019-04-27T17:36:19.890Z,12.15
2019-04-27T17:38:50.948Z,13.40
2019-04-27T17:41:18.502Z,12.28
2019-04-27T17:43:48.206Z,17.50
2019-04-27T17:46:16.596Z,20.27
2019-04-27T17:48:44.909Z,14.20
2019-04-27T17:51:13.403Z,14.87
2019-04-27T17:53:41.702Z,15.55
2019-04-27T17:56:09.992Z,15.83
2019-04-27T17:58:39.623Z,15.70
2019-04-27T18:01:14.129Z,16.27
2019-04-27T18:03:40.186Z,14.13
2019-04-27T18:06:08.749Z,15.35
2019-04-27T18:08:40.071Z,15.18
2019-04-27T18:11:08.754Z,13.85
2019-04-27T18:13:38.781Z,11.97
2019-04-27T18:16:09.095Z,15.37
2019-04-27T18:18:41.807Z,15.90
2019-04-27T18:21:11.157Z,16.02
2019-04-27T18:23:41.141Z,13.45
2019-04-27T18:26:12.671Z,15.80
2019-04-27T18:28:45.862Z,15.83
2019-04-27T18:31:17.902Z,15.72
2019-04-27T18:33:46.356Z,15.60
2019-04-27T18:36:14.788Z,17.35
2019-04-27T18:38:43.239Z,17.50
2019-04-27T18:41:12.009Z,17.70
2019-04-27T18:43:46.502Z,19.57
2019-04-27T18:46:10.565Z,14.63
2019-04-27T18:48:44.717Z,13.07
2019-04-27T18:51:25.173Z,17.48
2019-04-27T18:53:54.242Z,17.87
2019-04-27T18:56:21.240Z,15.72
2019-04-27T18:58:49.558Z,14.23
2019-04-27T19:01:18.790Z,16.15
2019-04-27T19:03:47.554Z,21.10
2019-04-27T19:06:18.840Z,21.27
2019-04-27T19:08:48.753Z,19.12
2019-04-27T19:11:18.773Z,21.90
2019-04-27T19:13:48.732Z,28.00
2019-04-27T19:16:18.742Z,17.95
2019-04-27T19:18:48.065Z,20.12
2019-04-27T19:21:19.850Z,20.55
2019-04-27T19:23:46.871Z,22.90
2019-04-27T19:26:18.597Z,31.17
2019-04-27T19:29:08.438Z,19.90
2019-04-27T19:31:38.943Z,18.40
2019-04-27T19:34:07.270Z,22.20
2019-04-27T19:36:35.596Z,21.70
2019-04-27T19:39:05.137Z,19.80
2019-04-27T19:41:33.443Z,20.40
2019-04-27T19:44:01.752Z,18.42
2019-04-27T19:46:30.577Z,16.67
2019-04-27T19:48:59.269Z,17.35
2019-04-27T19:51:28.193Z,18.73
2019-04-27T19:53:58.158Z,19.00
2019-04-27T19:56:28.333Z,17.73
2019-04-27T19:59:01.289Z,19.32
2019-04-27T20:01:38.299Z,18.10
2019-04-27T20:04:14.740Z,21.77
2019-04-27T20:06:43.161Z,21.62
2019-04-27T20:09:13.188Z,20.15
2019-04-27T20:11:41.578Z,18.73
2019-04-27T20:14:10.998Z,18.60
2019-04-27T20:16:39.478Z,30.37
2019-04-27T20:19:07.800Z,24.50
2019-04-27T20:21:36.107Z,26.47
2019-04-27T20:24:04.411Z,22.27
2019-04-27T20:26:32.735Z,34.43
2019-04-27T20:29:01.522Z,26.05
2019-04-27T20:31:30.635Z,24.35
2019-04-27T20:34:00.396Z,17.92
2019-04-27T20:36:28.727Z,23.02
2019-04-27T20:38:57.057Z,21.15
2019-04-27T20:41:25.413Z,23.22
2019-04-27T20:43:53.744Z,20.68
2019-04-27T20:46:22.756Z,22.90
2019-04-27T20:48:51.325Z,30.08
2019-04-27T20:51:21.337Z,23.47
2019-04-27T20:53:54.071Z,18.35
2019-04-27T20:56:22.423Z,20.72
2019-04-27T20:58:51.053Z,18.52
2019-04-27T21:01:19.511Z,23.20
2019-04-27T21:03:51.185Z,23.93
2019-04-27T21:09:56.452Z,22.73
2019-04-27T21:12:24.748Z,23.52
2019-04-27T21:14:53.060Z,19.87
2019-04-27T21:17:21.817Z,20.08
2019-04-27T21:19:51.541Z,18.27
2019-04-27T21:22:21.224Z,18.80
2019-04-27T21:24:51.395Z,16.60
2019-04-27T21:27:21.583Z,17.10
2019-04-27T21:29:51.613Z,18.70
2019-04-27T21:32:20.664Z,16.87
2019-04-27T21:34:48.956Z,18.70
2019-04-27T21:37:18.536Z,20.50
2019-04-27T21:39:46.993Z,21.27
2019-04-27T21:42:15.297Z,17.67
2019-04-27T21:44:43.935Z,23.92
2019-04-27T21:47:12.291Z,23.13
2019-04-27T21:49:41.593Z,20.10
2019-04-27T21:52:21.407Z,20.67
2019-04-27T21:54:51.362Z,19.10
2019-04-27T21:57:21.033Z,18.10
2019-04-27T21:59:49.243Z,25.17
2019-04-27T22:02:19.207Z,21.10
2019-04-27T22:04:47.756Z,23.98
2019-04-27T22:07:16.108Z,21.60
2019-04-27T22:09:44.427Z,17.65
2019-04-27T22:12:12.719Z,21.60
2019-04-27T22:14:41.106Z,17.12
2019-04-27T22:17:11.052Z,19.57
2019-04-27T22:19:41.314Z,19.65
2019-04-27T22:22:12.593Z,21.73
2019-04-27T22:24:43.014Z,16.73
2019-04-27T22:27:11.263Z,16.75
2019-04-27T22:29:39.606Z,19.70
2019-04-27T22:32:07.669Z,18.48
2019-04-27T22:34:35.965Z,18.92
2019-04-27T22:37:04.476Z,20.62
2019-04-27T22:39:40.606Z,18.12
2019-04-27T22:42:13.516Z,19.45
2019-04-27T22:44:50.915Z,16.60
2019-04-27T22:47:19.436Z,16.45
2019-04-27T22:49:47.739Z,16.93
2019-04-27T22:52:16.464Z,21.70
2019-04-27T22:54:44.842Z,20.45
2019-04-27T22:57:17.515Z,19.37
2019-04-27T22:59:47.462Z,21.10
2019-04-27T23:02:21.688Z,15.95
2019-04-27T23:04:54.949Z,19.45
2019-04-27T23:07:23.049Z,16.07
2019-04-27T23:09:51.732Z,21.45
2019-04-27T23:12:21.534Z,19.17
2019-04-27T23:14:50.729Z,15.77
2019-04-27T23:17:33.144Z,18.15
2019-04-27T23:20:01.783Z,19.25
2019-04-27T23:22:31.521Z,16.45
2019-04-27T23:25:01.080Z,21.12
2019-04-27T23:27:29.571Z,16.00
2019-04-27T23:29:58.177Z,16.50
2019-04-27T23:32:37.234Z,18.95
2019-04-27T23:35:06.277Z,18.32
2019-04-27T23:37:34.581Z,15.28
2019-04-27T23:40:03.308Z,20.55
2019-04-27T23:42:31.664Z,17.40
2019-04-27T23:44:59.992Z,17.20
2019-04-27T23:47:28.320Z,15.37
2019-04-27T23:49:56.638Z,19.35
2019-04-27T23:52:26.643Z,16.20
2019-04-27T23:54:54.988Z,16.65
2019-04-27T23:57:23.290Z,17.37
2019-04-27T23:59:51.624Z,16.47
